Terminal Aerodrome Forecast
Issued by NWS Medford, OR

Home | Current Version | Previous Version | Text Only | Print | Product List | Glossary On
Versions: 1 2 3 4 5 6 7 8 9 10 11 12 13 14 15 16 17 18 19 20 21 22 23 24
000
FTUS46 KMFR 071738
TAFMFR
TAF
KMFR 071738Z 0718/0818 VRB04KT P6SM SCT005 BKN150
     FM080300 15006KT P6SM VCSH BKN040 OVC100
     FM080600 VRB03KT P6SM -RA BKN025 OVC040=

USA.gov is the U.S. government's official web portal to all federal, state and local government web resources and services.